Froid, Montana
Current Conditions -  °F | °C
As of 5:52 AM on Sunday 21 Dec 2014 (Local Time) from KISN Reporting Station
Clear Clear  
Wind Chill: 14°   Ceiling: Unl
Heat Index: 14°   Visibility: 10mi
Dew Point: 13°   Wind: 0mph
Humidity: 95%   Direction: NA
Pressure: 29.52"   Gusts: NA
Location:  48.33°N, 104.5°W
Report Text: KISN 211252Z AUTO 00000KT 10SM CLR M10/M11 A2952 RMK AO2 SLP025 I1000 T11001106 $
Loading
Personal Weather Stations






























Interactive Weather Map New forecast layout! Learn more

10-Day Weather Forecast

Advertisements
Track Severe Weather on mobile